Time;durP1;ratioP1;P1;durP2;ratioP2;P2;SDS_P1;SDS_P2;PMS_P1;PMS_P2;Temp;Humidity;BMP_temperature;BMP_pressure;BME280_temperature;BME280_humidity;BME280_pressure;Samples;Min_cycle;Max_cycle;Signal;HPM_P1;HPM_P2
2023/06/20 00:00:06;;;;;;;5.65;3.60;;;;;;;20.80;100.00;100289.00;676922;29;1977;-55
2023/06/20 00:00:27;;;;;;;5.55;3.20;;;;;;;20.81;100.00;100289.88;675878;29;1485;-55
2023/06/20 00:00:48;;;;;;;5.10;3.17;;;;;;;20.80;100.00;100297.00;677207;29;1161;-53
2023/06/20 00:01:08;;;;;;;4.68;3.20;;;;;;;20.80;100.00;100290.81;676986;29;1355;-55
2023/06/20 00:01:28;;;;;;;5.15;3.15;;;;;;;20.80;100.00;100285.50;675357;29;4662;-55
2023/06/20 00:01:49;;;;;;;5.63;3.10;;;;;;;20.81;100.00;100292.53;677646;29;1292;-55
2023/06/20 00:02:09;;;;;;;4.93;3.10;;;;;;;20.81;100.00;100295.19;677243;29;1207;-55
2023/06/20 00:02:30;;;;;;;4.53;3.10;;;;;;;20.81;100.00;100288.09;675956;29;1622;-55
2023/06/20 00:02:50;;;;;;;5.30;3.03;;;;;;;20.81;100.00;100289.88;677660;29;1431;-55
2023/06/20 00:03:10;;;;;;;5.32;3.13;;;;;;;20.81;100.00;100289.88;677378;29;1390;-55
2023/06/20 00:03:30;;;;;;;5.63;3.23;;;;;;;20.80;100.00;100290.81;675632;29;1476;-54
2023/06/20 00:03:51;;;;;;;5.10;3.37;;;;;;;20.80;100.00;100285.50;677439;29;1380;-55
2023/06/20 00:04:11;;;;;;;6.38;3.58;;;;;;;20.79;100.00;100295.25;676231;29;4545;-55
2023/06/20 00:04:31;;;;;;;6.07;3.20;;;;;;;20.81;100.00;100289.88;676176;29;1457;-55
2023/06/20 00:04:52;;;;;;;5.83;3.30;;;;;;;20.80;100.00;100285.50;677301;29;1324;-53
2023/06/20 00:05:12;;;;;;;5.45;3.15;;;;;;;20.80;100.00;100286.34;678063;29;1339;-55
2023/06/20 00:05:33;;;;;;;5.53;3.17;;;;;;;20.84;100.00;100287.06;678749;29;1499;-55
2023/06/20 00:05:53;;;;;;;5.00;3.10;;;;;;;20.82;100.00;100289.78;679494;29;1129;-55
2023/06/20 00:06:13;;;;;;;6.20;3.07;;;;;;;20.83;100.00;100285.34;676819;29;1375;-55
2023/06/20 00:06:34;;;;;;;6.63;3.20;;;;;;;20.82;100.00;100291.59;675954;29;1480;-55
2023/06/20 00:06:54;;;;;;;5.32;3.00;;;;;;;20.80;100.00;100283.69;677497;29;1438;-55
2023/06/20 00:07:15;;;;;;;5.10;3.10;;;;;;;20.80;100.00;100286.34;676312;29;4675;-57
2023/06/20 00:07:35;;;;;;;5.30;3.40;;;;;;;20.81;100.00;100288.09;676018;29;1503;-55
2023/06/20 00:07:56;;;;;;;5.57;3.03;;;;;;;20.81;100.00;100284.56;677298;29;1532;-54
2023/06/20 00:08:16;;;;;;;5.20;3.17;;;;;;;20.81;100.00;100287.22;676770;29;1332;-54
2023/06/20 00:08:36;;;;;;;4.87;3.23;;;;;;;20.80;100.00;100286.34;675934;29;1471;-55
2023/06/20 00:08:57;;;;;;;5.70;3.30;;;;;;;20.82;100.00;100291.59;677674;29;1245;-55
2023/06/20 00:09:17;;;;;;;5.35;3.30;;;;;;;20.82;100.00;100284.47;677219;29;1355;-57
2023/06/20 00:09:37;;;;;;;5.10;3.37;;;;;;;20.83;100.00;100291.50;675909;29;1563;-55
2023/06/20 00:09:57;;;;;;;5.57;3.37;;;;;;;20.82;100.00;100288.94;676969;29;1443;-55
2023/06/20 00:10:18;;;;;;;5.80;3.30;;;;;;;20.82;100.00;100287.13;676235;29;4639;-55
2023/06/20 00:10:39;;;;;;;5.17;3.17;;;;;;;20.81;100.00;100297.84;677143;29;1130;-55
2023/06/20 00:10:59;;;;;;;4.95;3.20;;;;;;;20.82;100.00;100289.78;677136;29;1534;-55
2023/06/20 00:11:19;;;;;;;5.30;3.10;;;;;;;20.81;100.00;100281.91;676027;29;1523;-54
2023/06/20 00:11:40;;;;;;;5.18;3.30;;;;;;;20.81;100.00;100292.53;679437;29;1451;-55
2023/06/20 00:12:00;;;;;;;5.47;3.17;;;;;;;20.80;100.00;100289.00;679571;29;1114;-55
2023/06/20 00:12:20;;;;;;;5.17;3.00;;;;;;;20.79;100.00;100287.28;678503;29;1644;-55
2023/06/20 00:12:41;;;;;;;5.70;3.40;;;;;;;20.80;100.00;100290.81;677335;29;1471;-55
2023/06/20 00:13:01;;;;;;;5.77;3.30;;;;;;;20.81;100.00;100287.22;677601;29;1510;-55
2023/06/20 00:13:22;;;;;;;4.80;2.90;;;;;;;20.79;100.00;100294.41;675299;29;4370;-56
2023/06/20 00:13:43;;;;;;;4.77;3.13;;;;;;;20.76;100.00;100287.47;677234;29;1249;-57
2023/06/20 00:14:03;;;;;;;5.40;3.10;;;;;;;20.81;100.00;100292.53;677087;29;1372;-55
2023/06/20 00:14:24;;;;;;;5.23;3.13;;;;;;;20.81;100.00;100287.22;676378;29;1448;-55
2023/06/20 00:14:44;;;;;;;5.57;3.30;;;;;;;20.80;100.00;100286.34;677101;29;1481;-55
2023/06/20 00:15:05;;;;;;;6.43;3.38;;;;;;;20.79;100.00;100289.94;677047;29;1367;-55
2023/06/20 00:15:26;;;;;;;5.18;3.15;;;;;;;20.79;100.00;100289.09;676142;29;1468;-55
2023/06/20 00:15:46;;;;;;;4.80;2.92;;;;;;;20.79;100.00;100287.28;676974;29;1387;-55
2023/06/20 00:16:07;;;;;;;5.73;3.20;;;;;;;20.79;100.00;100292.59;676572;29;1284;-55
2023/06/20 00:16:27;;;;;;;5.63;3.40;;;;;;;20.81;100.00;100288.09;675181;29;4271;-55
2023/06/20 00:16:47;;;;;;;4.82;3.30;;;;;;;20.87;100.00;100285.09;677519;29;1356;-55
2023/06/20 00:17:08;;;;;;;4.73;3.10;;;;;;;20.86;100.00;100286.03;677012;29;1327;-55
2023/06/20 00:17:28;;;;;;;4.80;3.30;;;;;;;20.86;100.00;100293.13;676342;29;1165;-55
2023/06/20 00:17:49;;;;;;;5.03;3.27;;;;;;;20.84;100.00;100289.72;677112;29;1137;-55
2023/06/20 00:18:09;;;;;;;5.43;3.00;;;;;;;20.83;100.00;100286.19;676757;29;1403;-57
2023/06/20 00:18:29;;;;;;;5.05;3.22;;;;;;;20.80;100.00;100285.50;675858;29;1273;-55
2023/06/20 00:18:53;;;;;;;5.47;3.27;;;;;;;20.82;100.00;100292.44;677177;29;1327;-55
2023/06/20 00:19:14;;;;;;;5.25;3.30;;;;;;;20.80;100.00;100291.69;677125;29;4567;-55
2023/06/20 00:19:34;;;;;;;5.23;3.40;;;;;;;20.79;100.00;100289.09;676031;29;1456;-55
2023/06/20 00:19:54;;;;;;;5.88;3.50;;;;;;;20.76;100.00;100284.81;676199;29;3334;-55
2023/06/20 00:20:15;;;;;;;5.30;3.30;;;;;;;20.75;100.00;100289.28;677102;29;1446;-55
2023/06/20 00:20:35;;;;;;;4.73;3.13;;;;;;;20.73;100.00;100288.47;676288;29;1614;-54
2023/06/20 00:20:55;;;;;;;5.32;3.30;;;;;;;20.73;100.00;100285.81;677009;29;1470;-55
2023/06/20 00:21:16;;;;;;;5.47;3.20;;;;;;;20.73;100.00;100287.63;677272;29;1387;-55
2023/06/20 00:21:39;;;;;;;5.78;3.30;;;;;;;20.72;100.00;100289.41;675719;29;1563;-55
2023/06/20 00:22:02;;;;;;;5.35;3.20;;;;;;;20.71;100.00;100289.50;676747;29;1573;-55
2023/06/20 00:22:23;;;;;;;5.15;3.10;;;;;;;20.70;100.00;100291.31;674915;29;4633;-55
2023/06/20 00:22:43;;;;;;;5.00;3.00;;;;;;;20.70;100.00;100288.66;677210;29;1392;-55
2023/06/20 00:23:03;;;;;;;5.18;3.10;;;;;;;20.69;100.00;100284.28;675527;29;1344;-55
2023/06/20 00:23:24;;;;;;;4.67;2.97;;;;;;;20.71;100.00;100289.50;676054;29;1546;-55
2023/06/20 00:23:45;;;;;;;5.03;2.92;;;;;;;20.71;100.00;100286.84;673505;29;1368;-55
2023/06/20 00:24:09;;;;;;;4.82;3.13;;;;;;;20.68;100.00;100284.34;673690;29;1431;-55
2023/06/20 00:24:32;;;;;;;5.10;3.13;;;;;;;20.68;100.00;100282.53;671268;29;1631;-55
2023/06/20 00:24:53;;;;;;;5.60;3.22;;;;;;;20.73;100.00;100290.28;671272;29;1318;-55
2023/06/20 00:25:13;;;;;;;5.63;3.20;;;;;;;20.73;100.00;100290.28;669363;29;4647;-55
2023/06/20 00:25:33;;;;;;;4.40;3.00;;;;;;;20.71;100.00;100282.41;670984;29;1540;-55
2023/06/20 00:25:54;;;;;;;4.70;3.20;;;;;;;20.69;100.00;100278.97;673266;29;1523;-55
2023/06/20 00:26:14;;;;;;;4.97;3.10;;;;;;;20.72;100.00;100288.56;673992;29;1178;-55
2023/06/20 00:26:38;;;;;;;5.00;3.20;;;;;;;20.72;100.00;100289.41;669597;29;1318;-55
2023/06/20 00:27:00;;;;;;;5.30;2.90;;;;;;;20.73;100.00;100290.28;673663;29;1522;-56
2023/06/20 00:27:20;;;;;;;4.95;3.03;;;;;;;20.73;100.00;100284.97;671589;29;1480;-55
2023/06/20 00:27:41;;;;;;;4.87;3.27;;;;;;;20.72;100.00;100293.88;670680;29;1630;-55
2023/06/20 00:28:02;;;;;;;4.88;3.38;;;;;;;20.70;100.00;100290.44;670308;29;1495;-55
2023/06/20 00:28:22;;;;;;;5.03;3.50;;;;;;;20.70;100.00;100286.00;671273;29;4745;-55
2023/06/20 00:28:43;;;;;;;5.23;3.37;;;;;;;20.70;100.00;100290.44;674122;29;1344;-55
2023/06/20 00:29:04;;;;;;;5.05;3.30;;;;;;;20.71;100.00;100293.03;673634;29;1515;-55
2023/06/20 00:29:25;;;;;;;4.97;3.25;;;;;;;20.75;100.00;100288.41;673480;29;1448;-56
2023/06/20 00:29:45;;;;;;;5.65;3.30;;;;;;;20.78;100.00;100290.03;677386;29;1328;-55
2023/06/20 00:30:07;;;;;;;4.97;3.00;;;;;;;20.78;100.00;100292.69;677037;29;1359;-55
2023/06/20 00:30:27;;;;;;;5.07;3.00;;;;;;;20.77;100.00;100290.97;675358;29;3213;-55
2023/06/20 00:30:48;;;;;;;5.47;3.17;;;;;;;20.78;100.00;100287.38;677095;29;1486;-55
2023/06/20 00:31:08;;;;;;;5.00;3.20;;;;;;;20.78;100.00;100290.03;676707;29;4481;-52
2023/06/20 00:31:29;;;;;;;4.70;3.20;;;;;;;20.75;100.00;100289.28;675671;29;1554;-55
2023/06/20 00:31:49;;;;;;;4.57;3.10;;;;;;;20.74;100.00;100290.22;677287;29;1185;-55
2023/06/20 00:32:10;;;;;;;4.82;3.00;;;;;;;20.80;100.00;100288.16;677223;29;1323;-55
2023/06/20 00:32:30;;;;;;;5.53;3.13;;;;;;;20.84;100.00;100287.06;675633;29;1535;-55
2023/06/20 00:32:50;;;;;;;5.60;3.10;;;;;;;20.81;100.00;100287.22;674308;29;1399;-55
2023/06/20 00:33:11;;;;;;;5.15;3.00;;;;;;;20.80;100.00;100290.81;672063;29;1505;-54
2023/06/20 00:33:36;;;;;;;5.53;3.35;;;;;;;20.79;100.00;100291.75;670351;29;1846;-55
2023/06/20 00:33:56;;;;;;;5.55;3.13;;;;;;;20.79;100.00;100291.75;672171;29;1495;-55
2023/06/20 00:34:17;;;;;;;5.50;3.50;;;;;;;20.78;100.00;100287.38;671454;29;4769;-55
2023/06/20 00:34:37;;;;;;;5.20;3.30;;;;;;;20.75;100.00;100283.09;670969;29;1542;-54
2023/06/20 00:34:58;;;;;;;5.07;3.30;;;;;;;20.76;100.00;100287.47;674785;29;1297;-55
2023/06/20 00:35:19;;;;;;;5.20;3.28;;;;;;;20.77;100.00;100290.97;676328;29;1328;-54
2023/06/20 00:35:39;;;;;;;5.43;3.27;;;;;;;20.75;100.00;100285.75;672974;29;1218;-55
2023/06/20 00:35:59;;;;;;;5.40;3.20;;;;;;;20.72;100.00;100289.41;674416;29;1480;-55
2023/06/20 00:36:26;;;;;;;4.85;3.40;;;;;;;20.71;100.00;100287.72;673426;29;1492;-55
2023/06/20 00:36:46;;;;;;;5.30;3.55;;;;;;;20.70;100.00;100288.66;676103;29;1471;-55
2023/06/20 00:37:07;;;;;;;5.68;3.50;;;;;;;20.70;100.00;100298.41;671821;29;1253;-55
2023/06/20 00:37:27;;;;;;;5.30;3.40;;;;;;;20.69;100.00;100297.56;671277;29;4372;-55
2023/06/20 00:37:47;;;;;;;5.10;3.20;;;;;;;20.69;100.00;100291.38;674232;29;1372;-55
2023/06/20 00:38:08;;;;;;;5.70;3.20;;;;;;;20.68;100.00;100295.81;674513;29;1273;-57
2023/06/20 00:38:29;;;;;;;5.90;3.40;;;;;;;20.69;100.00;100294.03;673486;29;1550;-54
2023/06/20 00:38:49;;;;;;;5.40;3.25;;;;;;;20.67;100.00;100299.41;673306;29;1364;-56
2023/06/20 00:39:11;;;;;;;5.30;3.30;;;;;;;20.66;100.00;100297.69;677619;29;1300;-55
2023/06/20 00:39:33;;;;;;;5.20;3.20;;;;;;;20.66;100.00;100296.84;676683;29;1169;-55
2023/06/20 00:39:53;;;;;;;4.63;3.20;;;;;;;20.65;100.00;100298.63;676838;29;1933;-55
2023/06/20 00:40:14;;;;;;;4.10;2.95;;;;;;;20.66;100.00;100302.16;677965;29;4558;-55
2023/06/20 00:40:34;;;;;;;4.73;3.17;;;;;;;20.64;100.00;100296.91;677832;29;1550;-55
2023/06/20 00:40:56;;;;;;;5.35;3.17;;;;;;;20.65;100.00;100303.09;679418;29;1375;-55
2023/06/20 00:41:16;;;;;;;5.07;3.28;;;;;;;20.65;100.00;100295.13;679710;29;1351;-54
2023/06/20 00:41:37;;;;;;;5.32;3.13;;;;;;;20.64;100.00;100299.53;675640;29;1473;-55
2023/06/20 00:41:57;;;;;;;6.53;3.10;;;;;;;20.66;100.00;100300.34;676872;29;1336;-55
2023/06/20 00:42:25;;;;;;;5.75;3.38;;;;;;;20.66;100.00;100300.34;673486;29;5037;-55
2023/06/20 00:42:45;;;;;;;4.60;2.85;;;;;;;20.66;100.00;100303.00;674635;29;1297;-55
2023/06/20 00:43:06;;;;;;;4.95;3.20;;;;;;;20.65;100.00;100297.78;673975;29;1391;-55
2023/06/20 00:43:26;;;;;;;5.13;3.40;;;;;;;20.64;100.00;100307.50;672547;29;4476;-55
2023/06/20 00:43:48;;;;;;;5.80;3.20;;;;;;;20.66;100.00;100304.81;674595;29;1321;-54
2023/06/20 00:44:09;;;;;;;4.68;3.10;;;;;;;20.66;100.00;100310.97;671594;29;1380;-55
2023/06/20 00:44:30;;;;;;;4.82;3.13;;;;;;;20.66;100.00;100305.66;670492;29;1615;-54
2023/06/20 00:44:50;;;;;;;4.93;3.27;;;;;;;20.67;100.00;100302.06;669853;29;1452;-55
2023/06/20 00:45:26;;;;;;;5.22;3.30;;;;;;;20.68;100.00;100309.09;669079;29;1313;-55
2023/06/20 00:45:47;;;;;;;5.25;3.28;;;;;;;20.71;100.00;100305.44;672410;29;1425;-55
2023/06/20 00:46:10;;;;;;;4.60;3.07;;;;;;;20.70;100.00;100309.91;673475;29;1425;-57
2023/06/20 00:46:38;;;;;;;5.28;3.10;;;;;;;20.68;100.00;100313.56;670460;29;4704;-56
2023/06/20 00:46:59;;;;;;;5.20;3.08;;;;;;;20.67;100.00;100312.69;668623;29;2265;-55
2023/06/20 00:47:20;;;;;;;4.90;3.08;;;;;;;20.66;100.00;100316.28;667642;29;1472;-55
2023/06/20 00:47:40;;;;;;;4.70;3.10;;;;;;;20.66;100.00;100305.66;667326;29;1191;-55
2023/06/20 00:48:03;;;;;;;5.27;3.23;;;;;;;20.66;100.00;100308.31;670117;29;1574;-55
2023/06/20 00:48:24;;;;;;;5.15;3.17;;;;;;;20.67;100.00;100311.81;669494;29;1745;-55
2023/06/20 00:48:48;;;;;;;4.65;3.03;;;;;;;20.65;100.00;100309.25;671688;29;1170;-54
2023/06/20 00:49:10;;;;;;;4.90;3.15;;;;;;;20.64;100.00;100315.47;673177;29;4573;-55
2023/06/20 00:49:30;;;;;;;5.07;3.17;;;;;;;20.62;100.00;100309.41;674424;29;1146;-55
2023/06/20 00:49:51;;;;;;;5.30;3.20;;;;;;;20.63;100.00;100310.25;676011;29;1332;-55
2023/06/20 00:50:14;;;;;;;5.78;3.30;;;;;;;20.67;100.00;100312.69;674413;29;1376;-55
2023/06/20 00:50:37;;;;;;;5.10;3.30;;;;;;;20.66;100.00;100313.63;672656;29;1302;-54
2023/06/20 00:50:57;;;;;;;5.53;3.30;;;;;;;20.65;100.00;100309.25;674703;29;1581;-55
2023/06/20 00:51:20;;;;;;;5.40;3.10;;;;;;;20.64;100.00;100312.81;671803;29;1484;-55
2023/06/20 00:51:41;;;;;;;5.40;3.15;;;;;;;20.61;100.00;100317.47;668391;29;2080;-55
2023/06/20 00:52:04;;;;;;;4.50;3.10;;;;;;;20.58;100.00;100310.50;669327;29;1302;-54
2023/06/20 00:52:25;;;;;;;5.55;3.50;;;;;;;20.57;100.00;100314.09;668160;29;4582;-54
2023/06/20 00:52:48;;;;;;;5.10;3.20;;;;;;;20.55;100.00;100313.34;670884;29;1377;-54
2023/06/20 00:53:09;;;;;;;5.32;3.33;;;;;;;20.53;100.00;100313.41;671096;29;1321;-55
2023/06/20 00:53:29;;;;;;;5.80;3.45;;;;;;;20.52;100.00;100313.47;671226;29;1490;-55
2023/06/20 00:53:53;;;;;;;5.43;3.33;;;;;;;20.51;100.00;100311.78;675602;29;1388;-56
2023/06/20 00:54:14;;;;;;;5.60;3.38;;;;;;;20.49;100.00;100318.94;677088;29;1387;-54
2023/06/20 00:54:35;;;;;;;5.68;3.10;;;;;;;20.49;100.00;100324.25;675663;29;1691;-54
2023/06/20 00:54:55;;;;;;;5.75;3.20;;;;;;;20.49;100.00;100316.28;676513;29;1391;-55
2023/06/20 00:55:15;;;;;;;4.97;3.20;;;;;;;20.49;100.00;100324.25;672105;29;4616;-54
2023/06/20 00:55:37;;;;;;;4.35;2.90;;;;;;;20.49;100.00;100313.63;672465;29;1496;-53
2023/06/20 00:55:59;;;;;;;5.03;3.20;;;;;;;20.49;100.00;100316.28;674460;29;1344;-55
2023/06/20 00:56:19;;;;;;;5.00;3.40;;;;;;;20.49;100.00;100314.50;674295;29;1301;-54
2023/06/20 00:56:41;;;;;;;5.40;3.20;;;;;;;20.48;100.00;100307.47;670244;29;1625;-55
2023/06/20 00:57:04;;;;;;;5.28;3.25;;;;;;;20.50;100.00;100312.69;672634;29;1395;-55
2023/06/20 00:57:24;;;;;;;6.60;4.00;;;;;;;20.50;100.00;100315.34;672688;29;1582;-54
2023/06/20 00:57:45;;;;;;;4.90;3.37;;;;;;;20.50;100.00;100318.84;671331;29;1524;-55
2023/06/20 00:58:06;;;;;;;4.32;3.00;;;;;;;20.51;100.00;100314.44;669403;29;1332;-55
2023/06/20 00:58:26;;;;;;;6.00;3.47;;;;;;;20.52;100.00;100308.16;668315;29;4460;-55
2023/06/20 00:58:46;;;;;;;5.93;3.20;;;;;;;20.53;100.00;100317.84;671731;29;1403;-55
2023/06/20 00:59:08;;;;;;;4.90;3.13;;;;;;;20.53;100.00;100318.72;672057;29;1154;-55
2023/06/20 00:59:28;;;;;;;5.22;3.17;;;;;;;20.56;100.00;100315.03;672023;29;1713;-55
2023/06/20 00:59:50;;;;;;;5.00;3.10;;;;;;;20.63;100.00;100312.91;676652;29;1438;-55
2023/06/20 01:00:12;;;;;;;4.47;2.85;;;;;;;20.68;100.00;100319.72;676915;29;1393;-55
2023/06/20 01:00:34;;;;;;;4.55;3.08;;;;;;;20.66;100.00;100315.44;675951;29;1519;-54
2023/06/20 01:00:54;;;;;;;5.45;3.50;;;;;;;20.65;100.00;100317.22;676879;29;1276;-55
2023/06/20 01:01:18;;;;;;;5.45;3.30;;;;;;;20.71;100.00;100318.72;676635;29;4439;-55
2023/06/20 01:01:39;;;;;;;4.82;3.30;;;;;;;20.70;100.00;100317.00;673021;29;1655;-54
2023/06/20 01:01:59;;;;;;;4.80;3.20;;;;;;;20.71;100.00;100321.38;674768;29;1166;-55
2023/06/20 01:02:21;;;;;;;4.70;3.13;;;;;;;20.68;100.00;100319.72;676986;29;1505;-54
2023/06/20 01:02:47;;;;;;;4.60;3.10;;;;;;;20.63;100.00;100320.88;677375;29;1467;-55
2023/06/20 01:03:12;;;;;;;5.05;3.03;;;;;;;20.60;100.00;100321.88;674098;29;2199;-55
2023/06/20 01:03:37;;;;;;;4.70;3.15;;;;;;;20.57;100.00;100317.63;672325;29;1251;-55
2023/06/20 01:03:58;;;;;;;4.82;3.20;;;;;;;20.54;100.00;100316.91;673816;29;1546;-54
2023/06/20 01:04:20;;;;;;;5.00;3.33;;;;;;;20.50;100.00;100316.19;671409;29;4428;-55
2023/06/20 01:04:45;;;;;;;4.70;3.20;;;;;;;20.46;100.00;100319.09;669470;29;1470;-57
2023/06/20 01:05:05;;;;;;;5.10;3.33;;;;;;;20.42;100.00;100308.66;670690;29;1462;-55
2023/06/20 01:05:28;;;;;;;5.18;3.45;;;;;;;20.47;100.00;100316.38;668276;29;1533;-55
2023/06/20 01:06:21;;;;;;;5.25;3.13;;;;;;;20.46;100.00;100314.66;671587;29;1158;-55
2023/06/20 01:06:52;;;;;;;5.20;3.35;;;;;;;20.48;100.00;100311.91;671197;29;2192;-55
2023/06/20 01:07:24;;;;;;;5.13;2.97;;;;;;;20.44;100.00;100313.03;672410;29;4850;-55
2023/06/20 01:08:02;;;;;;;4.95;3.15;;;;;;;20.45;100.00;100307.63;673846;29;1328;-56
2023/06/20 01:08:58;;;;;;;5.07;3.28;;;;;;;20.42;100.00;100311.31;672714;29;1583;-55
2023/06/20 01:09:28;;;;;;;5.50;3.40;;;;;;;20.49;100.00;100308.31;671223;29;1437;-55
2023/06/20 01:09:53;;;;;;;5.30;3.40;;;;;;;20.53;100.00;100315.19;676737;29;1364;-56
2023/06/20 01:10:31;;;;;;;5.20;3.30;;;;;;;20.54;100.00;100311.59;677080;29;4815;-55
2023/06/20 01:11:18;;;;;;;4.90;3.28;;;;;;;20.55;100.00;100308.03;675017;29;1564;-56
2023/06/20 01:11:59;;;;;;;6.72;3.40;;;;;;;20.50;100.00;100310.03;672082;29;1644;-55
2023/06/20 01:12:24;;;;;;;6.53;3.42;;;;;;;20.47;100.00;100311.06;676128;29;1539;-55
2023/06/20 01:12:59;;;;;;;7.20;3.53;;;;;;;20.52;100.00;100308.16;674799;29;1285;-54
2023/06/20 01:13:38;;;;;;;4.63;3.30;;;;;;;20.52;100.00;100306.38;676143;29;4722;-55
2023/06/20 01:14:07;;;;;;;5.07;3.00;;;;;;;20.52;100.00;100308.16;674545;29;1470;-55
2023/06/20 01:15:07;;;;;;;4.60;3.20;;;;;;;20.49;100.00;100311.84;672201;29;1555;-54
2023/06/20 01:15:50;;;;;;;5.72;3.25;;;;;;;20.49;100.00;100303.00;674340;29;1539;-54
2023/06/20 01:16:36;;;;;;;4.88;3.20;;;;;;;20.46;100.00;100306.69;674725;29;4534;-54
2023/06/20 01:17:13;;;;;;;6.00;3.40;;;;;;;20.46;100.00;100313.78;671646;29;1428;-54
2023/06/20 01:18:06;;;;;;;5.13;3.40;;;;;;;20.45;100.00;100307.63;670459;29;2222;-55
2023/06/20 01:18:54;;;;;;;5.03;3.25;;;;;;;20.45;100.00;100307.63;668384;29;1641;-55
2023/06/20 01:19:48;;;;;;;5.40;3.10;;;;;;;20.45;100.00;100312.06;670570;29;4469;-54
2023/06/20 01:20:17;;;;;;;5.45;3.30;;;;;;;20.46;100.00;100305.84;677998;29;1911;-53
2023/06/20 01:20:44;;;;;;;5.60;3.30;;;;;;;20.54;100.00;100312.44;675994;29;1648;-54
2023/06/20 01:21:07;;;;;;;4.97;3.50;;;;;;;20.64;100.00;100310.16;677599;29;1335;-54
2023/06/20 01:21:34;;;;;;;5.40;3.38;;;;;;;20.72;100.00;100308.00;674854;29;1653;-55
2023/06/20 01:22:02;;;;;;;5.28;3.70;;;;;;;20.69;100.00;100304.66;676328;29;921;-54
2023/06/20 01:22:49;;;;;;;5.03;3.40;;;;;;;20.73;100.00;100307.06;672177;29;4408;-54
2023/06/20 01:23:25;;;;;;;7.38;4.05;;;;;;;20.74;100.00;100307.91;669895;29;1358;-55
2023/06/20 01:24:00;;;;;;;5.50;3.40;;;;;;;20.75;100.00;100307.88;673152;29;1371;-54
2023/06/20 01:24:35;;;;;;;5.25;3.47;;;;;;;20.74;100.00;100305.25;675290;29;1344;-54
2023/06/20 01:24:59;;;;;;;5.95;3.40;;;;;;;20.74;100.00;100308.81;675280;29;1304;-55
2023/06/20 01:25:35;;;;;;;6.50;3.25;;;;;;;20.75;100.00;100312.31;671410;29;4338;-55
2023/06/20 01:25:59;;;;;;;5.68;3.47;;;;;;;20.79;100.00;100310.34;671858;29;1380;-51
2023/06/20 01:26:37;;;;;;;6.40;3.65;;;;;;;20.78;100.00;100304.16;669322;29;1468;-54
2023/06/20 01:27:08;;;;;;;6.97;3.50;;;;;;;20.82;100.00;100304.88;668495;29;1361;-54
2023/06/20 01:27:36;;;;;;;5.38;3.22;;;;;;;20.78;100.00;100306.81;668907;29;1664;-52
2023/06/20 01:28:21;;;;;;;6.05;3.47;;;;;;;20.84;100.00;100305.66;669419;29;1306;-51
2023/06/20 01:28:50;;;;;;;6.15;3.50;;;;;;;20.90;100.00;100302.66;671984;29;5551;-54
2023/06/20 01:29:32;;;;;;;6.22;3.65;;;;;;;21.01;100.00;100310.91;670289;29;1376;-54
2023/06/20 01:30:25;;;;;;;5.50;3.55;;;;;;;20.99;100.00;100306.63;671587;29;1533;-55
2023/06/20 01:30:50;;;;;;;5.03;3.42;;;;;;;20.94;100.00;100309.53;673548;29;1847;-54
2023/06/20 01:31:14;;;;;;;6.28;3.60;;;;;;;20.97;100.00;100308.50;672974;29;4610;-55
2023/06/20 01:31:38;;;;;;;5.95;3.40;;;;;;;20.97;100.00;100308.50;672533;29;1916;-55
2023/06/20 01:32:04;;;;;;;6.10;3.75;;;;;;;20.92;100.00;100306.97;675094;29;1219;-55
2023/06/20 01:32:28;;;;;;;5.30;3.63;;;;;;;20.79;100.00;100307.69;670862;29;1823;-53
2023/06/20 01:32:53;;;;;;;6.70;3.60;;;;;;;20.74;100.00;100300.81;672041;29;1325;-51
2023/06/20 01:33:17;;;;;;;5.68;3.63;;;;;;;20.73;100.00;100312.38;675703;29;1348;-55
2023/06/20 01:33:56;;;;;;;5.25;3.50;;;;;;;20.73;100.00;100309.72;673957;29;1584;-54
2023/06/20 01:34:21;;;;;;;5.18;3.53;;;;;;;20.80;100.00;100314.72;675299;29;4432;-55
2023/06/20 01:34:49;;;;;;;6.22;3.80;;;;;;;20.81;100.00;100312.00;674110;29;2301;-55
2023/06/20 01:35:14;;;;;;;5.35;3.50;;;;;;;20.83;100.00;100306.59;672817;29;1351;-53
2023/06/20 01:35:37;;;;;;;4.95;3.35;;;;;;;20.80;100.00;100312.94;671999;29;1631;-55
2023/06/20 01:36:00;;;;;;;5.38;3.30;;;;;;;20.80;100.00;100302.28;673330;29;1392;-55
2023/06/20 01:36:24;;;;;;;6.00;3.60;;;;;;;20.80;100.00;100312.94;673777;29;1201;-54
2023/06/20 01:36:52;;;;;;;5.72;3.72;;;;;;;20.78;100.00;100308.63;672538;29;1376;-54
2023/06/20 01:37:17;;;;;;;5.40;3.53;;;;;;;20.84;100.00;100309.16;675512;29;4817;-55
2023/06/20 01:37:40;;;;;;;5.45;3.65;;;;;;;20.91;100.00;100299.91;674008;29;1839;-55
2023/06/20 01:38:06;;;;;;;6.50;3.33;;;;;;;20.95;100.00;100311.25;676078;29;1332;-52
2023/06/20 01:38:29;;;;;;;5.05;3.50;;;;;;;20.85;100.00;100312.66;674908;29;1893;-53
2023/06/20 01:38:54;;;;;;;5.43;3.33;;;;;;;20.81;100.00;100308.47;672653;29;1297;-55
2023/06/20 01:39:23;;;;;;;5.57;3.80;;;;;;;20.79;100.00;100310.34;674367;29;1324;-54
2023/06/20 01:39:46;;;;;;;5.55;3.70;;;;;;;20.75;100.00;100305.22;672406;29;1281;-54
2023/06/20 01:40:10;;;;;;;6.72;3.88;;;;;;;20.74;100.00;100305.25;674349;29;1915;-51
2023/06/20 01:40:33;;;;;;;5.90;3.72;;;;;;;20.72;100.00;100308.00;672324;29;6305;-54
2023/06/20 01:40:58;;;;;;;6.75;3.78;;;;;;;20.70;100.00;100304.59;673077;29;1369;-53
2023/06/20 01:41:22;;;;;;;6.20;3.70;;;;;;;20.77;100.00;100307.78;671341;29;1456;-54
2023/06/20 01:41:46;;;;;;;5.63;3.72;;;;;;;20.75;100.00;100299.91;670484;29;1337;-54
2023/06/20 01:42:06;;;;;;;5.20;3.58;;;;;;;20.80;100.00;100307.59;670879;29;1214;-55
2023/06/20 01:42:27;;;;;;;7.63;4.00;;;;;;;20.80;100.00;100307.59;671269;29;5500;-55
2023/06/20 01:42:48;;;;;;;8.03;4.00;;;;;;;20.80;100.00;100312.06;675299;29;1376;-51
2023/06/20 01:43:11;;;;;;;6.15;3.58;;;;;;;20.81;100.00;100305.81;676518;29;4477;-52
2023/06/20 01:43:33;;;;;;;6.57;3.75;;;;;;;20.82;100.00;100307.53;675747;29;1728;-53
2023/06/20 01:43:57;;;;;;;5.88;3.60;;;;;;;20.82;100.00;100307.53;673369;29;1341;-54
2023/06/20 01:44:19;;;;;;;5.45;3.40;;;;;;;20.80;100.00;100306.75;674547;29;1384;-54
2023/06/20 01:44:41;;;;;;;6.63;3.70;;;;;;;20.79;100.00;100305.03;670174;29;1719;-52
2023/06/20 01:45:04;;;;;;;6.50;4.10;;;;;;;20.80;100.00;100304.94;670104;29;1575;-54
2023/06/20 01:45:28;;;;;;;6.15;4.18;;;;;;;20.82;100.00;100302.22;669765;29;1959;-52
2023/06/20 01:45:52;;;;;;;6.75;3.83;;;;;;;20.79;100.00;100313.00;675143;29;1347;-53
2023/06/20 01:46:14;;;;;;;7.57;4.40;;;;;;;20.75;100.00;100310.53;673690;29;4546;-53
2023/06/20 01:46:35;;;;;;;7.85;4.20;;;;;;;20.74;100.00;100306.16;674215;29;1158;-55
2023/06/20 01:46:58;;;;;;;6.90;4.03;;;;;;;20.74;100.00;100306.16;676430;29;1355;-52
2023/06/20 01:47:19;;;;;;;6.07;3.80;;;;;;;20.73;100.00;100309.72;674088;29;1197;-54
2023/06/20 01:47:41;;;;;;;5.82;3.88;;;;;;;20.71;100.00;100314.28;670416;29;1627;-54
2023/06/20 01:48:05;;;;;;;5.88;3.80;;;;;;;20.69;100.00;100310.81;671594;29;1484;-54
2023/06/20 01:48:27;;;;;;;5.88;3.72;;;;;;;20.69;100.00;100312.63;672718;29;1610;-54
2023/06/20 01:48:49;;;;;;;6.05;3.70;;;;;;;20.65;100.00;100306.59;674165;29;1249;-54
2023/06/20 01:49:15;;;;;;;5.80;3.75;;;;;;;20.65;100.00;100311.91;672461;29;4481;-54
2023/06/20 01:49:37;;;;;;;5.50;3.83;;;;;;;20.72;100.00;100315.13;672337;29;2453;-54
2023/06/20 01:49:59;;;;;;;5.90;3.90;;;;;;;20.72;100.00;100312.47;673977;29;1369;-54
2023/06/20 01:50:21;;;;;;;6.68;3.70;;;;;;;20.71;100.00;100311.63;673011;29;1461;-53
2023/06/20 01:50:43;;;;;;;6.22;3.80;;;;;;;20.67;100.00;100312.69;669912;29;1566;-51
2023/06/20 01:51:04;;;;;;;5.97;3.95;;;;;;;20.65;100.00;100314.56;669817;29;1373;-53
2023/06/20 01:51:29;;;;;;;5.18;3.65;;;;;;;20.65;100.00;100311.06;671398;29;1756;-53
2023/06/20 01:51:55;;;;;;;5.90;4.00;;;;;;;20.65;100.00;100308.41;671428;29;1431;-55
2023/06/20 01:52:16;;;;;;;5.70;3.90;;;;;;;20.65;100.00;100311.06;670222;29;4676;-53
2023/06/20 01:52:38;;;;;;;5.85;3.80;;;;;;;20.63;100.00;100300.50;670685;29;1599;-51
2023/06/20 01:53:02;;;;;;;5.93;3.70;;;;;;;20.64;100.00;100307.50;673193;29;1535;-52